sensor_id;sensor_type;location;lat;lon;timestamp;P1;durP1;ratioP1;P2;durP2;ratioP2
7231;SDS011;3657;49.630;11.018;2023-05-03T00:00:36;7.60;;;7.40;;
7231;SDS011;3657;49.630;11.018;2023-05-03T00:03:05;7.97;;;7.77;;
7231;SDS011;3657;49.630;11.018;2023-05-03T00:05:32;8.37;;;8.07;;
7231;SDS011;3657;49.630;11.018;2023-05-03T00:07:58;8.57;;;8.30;;
7231;SDS011;3657;49.630;11.018;2023-05-03T00:10:26;8.70;;;8.40;;
7231;SDS011;3657;49.630;11.018;2023-05-03T00:12:53;8.30;;;8.00;;
7231;SDS011;3657;49.630;11.018;2023-05-03T00:15:20;7.53;;;7.30;;
7231;SDS011;3657;49.630;11.018;2023-05-03T00:17:47;7.93;;;7.53;;
7231;SDS011;3657;49.630;11.018;2023-05-03T00:20:15;8.67;;;8.33;;
7231;SDS011;3657;49.630;11.018;2023-05-03T00:22:43;7.70;;;7.40;;
7231;SDS011;3657;49.630;11.018;2023-05-03T00:25:09;8.00;;;7.80;;
7231;SDS011;3657;49.630;11.018;2023-05-03T00:27:36;9.00;;;8.60;;
7231;SDS011;3657;49.630;11.018;2023-05-03T00:30:03;7.77;;;7.37;;
7231;SDS011;3657;49.630;11.018;2023-05-03T00:32:31;8.07;;;7.77;;
7231;SDS011;3657;49.630;11.018;2023-05-03T00:34:58;7.93;;;7.70;;
7231;SDS011;3657;49.630;11.018;2023-05-03T00:37:26;9.07;;;8.67;;
7231;SDS011;3657;49.630;11.018;2023-05-03T00:39:53;8.87;;;8.57;;
7231;SDS011;3657;49.630;11.018;2023-05-03T00:42:20;8.33;;;7.93;;
7231;SDS011;3657;49.630;11.018;2023-05-03T00:44:48;8.00;;;7.77;;
7231;SDS011;3657;49.630;11.018;2023-05-03T00:47:15;8.57;;;8.27;;
7231;SDS011;3657;49.630;11.018;2023-05-03T00:49:42;8.50;;;8.20;;
7231;SDS011;3657;49.630;11.018;2023-05-03T00:52:09;8.47;;;8.10;;
7231;SDS011;3657;49.630;11.018;2023-05-03T00:54:37;8.50;;;8.20;;
7231;SDS011;3657;49.630;11.018;2023-05-03T00:57:05;9.73;;;9.43;;
7231;SDS011;3657;49.630;11.018;2023-05-03T00:59:32;9.50;;;9.07;;
7231;SDS011;3657;49.630;11.018;2023-05-03T01:01:59;8.70;;;8.30;;
7231;SDS011;3657;49.630;11.018;2023-05-03T01:04:26;8.23;;;7.93;;
7231;SDS011;3657;49.630;11.018;2023-05-03T01:06:55;9.20;;;8.80;;
7231;SDS011;3657;49.630;11.018;2023-05-03T01:09:30;8.77;;;8.47;;
7231;SDS011;3657;49.630;11.018;2023-05-03T01:12:06;9.10;;;8.80;;
7231;SDS011;3657;49.630;11.018;2023-05-03T01:14:44;8.80;;;8.47;;
7231;SDS011;3657;49.630;11.018;2023-05-03T01:17:16;7.90;;;7.60;;
7231;SDS011;3657;49.630;11.018;2023-05-03T01:19:46;9.10;;;8.70;;
7231;SDS011;3657;49.630;11.018;2023-05-03T01:22:31;9.97;;;9.40;;
7231;SDS011;3657;49.630;11.018;2023-05-03T01:25:06;9.20;;;8.90;;
7231;SDS011;3657;49.630;11.018;2023-05-03T01:27:34;8.63;;;8.33;;
7231;SDS011;3657;49.630;11.018;2023-05-03T01:30:01;8.93;;;8.43;;
7231;SDS011;3657;49.630;11.018;2023-05-03T01:32:30;9.40;;;9.10;;
7231;SDS011;3657;49.630;11.018;2023-05-03T01:35:07;9.67;;;9.17;;
7231;SDS011;3657;49.630;11.018;2023-05-03T01:37:40;8.60;;;8.27;;
7231;SDS011;3657;49.630;11.018;2023-05-03T01:40:09;9.67;;;9.20;;
7231;SDS011;3657;49.630;11.018;2023-05-03T01:42:40;8.80;;;8.50;;
7231;SDS011;3657;49.630;11.018;2023-05-03T01:45:08;8.97;;;8.67;;
7231;SDS011;3657;49.630;11.018;2023-05-03T01:47:36;8.07;;;7.77;;
7231;SDS011;3657;49.630;11.018;2023-05-03T01:50:02;9.43;;;8.97;;
7231;SDS011;3657;49.630;11.018;2023-05-03T01:52:29;9.20;;;8.80;;
7231;SDS011;3657;49.630;11.018;2023-05-03T01:54:56;9.67;;;9.27;;
7231;SDS011;3657;49.630;11.018;2023-05-03T01:57:25;9.23;;;8.90;;
7231;SDS011;3657;49.630;11.018;2023-05-03T01:59:52;8.90;;;8.60;;
7231;SDS011;3657;49.630;11.018;2023-05-03T02:02:18;8.70;;;8.40;;
7231;SDS011;3657;49.630;11.018;2023-05-03T02:04:45;8.83;;;8.40;;
7231;SDS011;3657;49.630;11.018;2023-05-03T02:07:11;8.93;;;8.63;;
7231;SDS011;3657;49.630;11.018;2023-05-03T02:09:38;8.87;;;8.50;;
7231;SDS011;3657;49.630;11.018;2023-05-03T02:12:05;8.50;;;8.20;;
7231;SDS011;3657;49.630;11.018;2023-05-03T02:14:33;8.77;;;8.47;;
7231;SDS011;3657;49.630;11.018;2023-05-03T02:17:00;9.23;;;8.83;;
7231;SDS011;3657;49.630;11.018;2023-05-03T02:19:27;8.80;;;8.40;;
7231;SDS011;3657;49.630;11.018;2023-05-03T02:21:53;8.93;;;8.60;;
7231;SDS011;3657;49.630;11.018;2023-05-03T02:24:21;8.90;;;8.47;;
7231;SDS011;3657;49.630;11.018;2023-05-03T02:26:48;8.10;;;7.80;;
7231;SDS011;3657;49.630;11.018;2023-05-03T02:29:14;8.63;;;8.23;;
7231;SDS011;3657;49.630;11.018;2023-05-03T02:31:43;8.77;;;8.47;;
7231;SDS011;3657;49.630;11.018;2023-05-03T02:34:09;9.00;;;8.60;;
7231;SDS011;3657;49.630;11.018;2023-05-03T02:36:36;9.23;;;8.93;;
7231;SDS011;3657;49.630;11.018;2023-05-03T02:39:03;9.50;;;9.10;;
7231;SDS011;3657;49.630;11.018;2023-05-03T02:41:30;8.80;;;8.40;;
7231;SDS011;3657;49.630;11.018;2023-05-03T02:43:56;10.20;;;9.60;;
7231;SDS011;3657;49.630;11.018;2023-05-03T02:46:23;9.77;;;9.30;;
7231;SDS011;3657;49.630;11.018;2023-05-03T02:48:51;8.73;;;8.43;;
7231;SDS011;3657;49.630;11.018;2023-05-03T02:51:17;9.77;;;9.37;;
7231;SDS011;3657;49.630;11.018;2023-05-03T02:53:44;9.80;;;9.40;;
7231;SDS011;3657;49.630;11.018;2023-05-03T02:56:11;10.03;;;9.63;;
7231;SDS011;3657;49.630;11.018;2023-05-03T02:58:37;10.03;;;9.53;;
7231;SDS011;3657;49.630;11.018;2023-05-03T03:01:04;10.07;;;9.50;;
7231;SDS011;3657;49.630;11.018;2023-05-03T03:03:31;10.63;;;10.23;;
7231;SDS011;3657;49.630;11.018;2023-05-03T03:05:59;9.80;;;9.30;;
7231;SDS011;3657;49.630;11.018;2023-05-03T03:08:26;9.97;;;9.57;;
7231;SDS011;3657;49.630;11.018;2023-05-03T03:10:53;9.73;;;9.43;;
7231;SDS011;3657;49.630;11.018;2023-05-03T03:13:19;10.07;;;9.57;;
7231;SDS011;3657;49.630;11.018;2023-05-03T03:15:46;10.70;;;10.10;;
7231;SDS011;3657;49.630;11.018;2023-05-03T03:18:12;9.33;;;9.00;;
7231;SDS011;3657;49.630;11.018;2023-05-03T03:20:39;10.40;;;10.03;;
7231;SDS011;3657;49.630;11.018;2023-05-03T03:23:07;9.73;;;9.33;;
7231;SDS011;3657;49.630;11.018;2023-05-03T03:25:34;11.30;;;10.80;;
7231;SDS011;3657;49.630;11.018;2023-05-03T03:28:00;10.20;;;9.80;;
7231;SDS011;3657;49.630;11.018;2023-05-03T03:30:27;10.63;;;10.13;;
7231;SDS011;3657;49.630;11.018;2023-05-03T03:32:54;10.37;;;9.70;;
7231;SDS011;3657;49.630;11.018;2023-05-03T03:35:21;10.03;;;9.53;;
7231;SDS011;3657;49.630;11.018;2023-05-03T03:37:48;9.73;;;9.33;;
7231;SDS011;3657;49.630;11.018;2023-05-03T03:40:16;10.57;;;10.17;;
7231;SDS011;3657;49.630;11.018;2023-05-03T03:42:42;11.13;;;10.63;;
7231;SDS011;3657;49.630;11.018;2023-05-03T03:45:09;9.87;;;9.47;;
7231;SDS011;3657;49.630;11.018;2023-05-03T03:47:36;11.87;;;11.23;;
7231;SDS011;3657;49.630;11.018;2023-05-03T03:50:03;10.17;;;9.77;;
7231;SDS011;3657;49.630;11.018;2023-05-03T03:52:31;10.57;;;10.07;;
7231;SDS011;3657;49.630;11.018;2023-05-03T03:54:57;9.87;;;9.47;;
7231;SDS011;3657;49.630;11.018;2023-05-03T03:57:26;10.40;;;10.00;;
7231;SDS011;3657;49.630;11.018;2023-05-03T03:59:54;11.30;;;10.63;;
7231;SDS011;3657;49.630;11.018;2023-05-03T04:02:20;11.17;;;10.67;;
7231;SDS011;3657;49.630;11.018;2023-05-03T04:04:48;10.93;;;10.53;;
7231;SDS011;3657;49.630;11.018;2023-05-03T04:07:15;10.20;;;9.70;;
7231;SDS011;3657;49.630;11.018;2023-05-03T04:09:41;10.33;;;9.83;;
7231;SDS011;3657;49.630;11.018;2023-05-03T04:12:08;11.37;;;10.87;;
7231;SDS011;3657;49.630;11.018;2023-05-03T04:14:36;10.37;;;9.80;;
7231;SDS011;3657;49.630;11.018;2023-05-03T04:17:03;10.20;;;9.63;;
7231;SDS011;3657;49.630;11.018;2023-05-03T04:19:30;10.60;;;10.20;;
7231;SDS011;3657;49.630;11.018;2023-05-03T04:21:57;11.37;;;10.90;;
7231;SDS011;3657;49.630;11.018;2023-05-03T04:24:23;10.20;;;9.90;;
7231;SDS011;3657;49.630;11.018;2023-05-03T04:26:51;10.93;;;10.43;;
7231;SDS011;3657;49.630;11.018;2023-05-03T04:29:18;10.93;;;10.43;;
7231;SDS011;3657;49.630;11.018;2023-05-03T04:31:46;12.10;;;11.50;;
7231;SDS011;3657;49.630;11.018;2023-05-03T04:34:13;11.43;;;10.93;;
7231;SDS011;3657;49.630;11.018;2023-05-03T04:36:39;10.90;;;10.43;;
7231;SDS011;3657;49.630;11.018;2023-05-03T04:39:06;11.53;;;10.93;;
7231;SDS011;3657;49.630;11.018;2023-05-03T04:41:35;10.33;;;9.87;;
7231;SDS011;3657;49.630;11.018;2023-05-03T04:44:02;9.60;;;9.30;;
7231;SDS011;3657;49.630;11.018;2023-05-03T04:46:30;9.83;;;9.53;;
7231;SDS011;3657;49.630;11.018;2023-05-03T04:48:58;11.77;;;11.13;;
7231;SDS011;3657;49.630;11.018;2023-05-03T04:51:25;12.57;;;11.80;;
7231;SDS011;3657;49.630;11.018;2023-05-03T04:53:53;10.97;;;10.47;;
7231;SDS011;3657;49.630;11.018;2023-05-03T04:56:20;10.70;;;10.20;;
7231;SDS011;3657;49.630;11.018;2023-05-03T04:58:50;10.30;;;9.90;;
7231;SDS011;3657;49.630;11.018;2023-05-03T05:01:16;11.67;;;11.07;;
7231;SDS011;3657;49.630;11.018;2023-05-03T05:03:43;10.40;;;10.10;;
7231;SDS011;3657;49.630;11.018;2023-05-03T05:06:11;10.33;;;9.93;;
7231;SDS011;3657;49.630;11.018;2023-05-03T05:08:38;10.03;;;9.63;;
7231;SDS011;3657;49.630;11.018;2023-05-03T05:11:04;10.47;;;9.97;;
7231;SDS011;3657;49.630;11.018;2023-05-03T05:13:32;10.53;;;10.13;;
7231;SDS011;3657;49.630;11.018;2023-05-03T05:15:58;10.00;;;9.60;;
7231;SDS011;3657;49.630;11.018;2023-05-03T05:18:25;10.60;;;10.20;;
7231;SDS011;3657;49.630;11.018;2023-05-03T05:20:52;10.23;;;9.83;;
7231;SDS011;3657;49.630;11.018;2023-05-03T05:23:19;10.90;;;10.17;;
7231;SDS011;3657;49.630;11.018;2023-05-03T05:25:46;10.13;;;9.60;;
7231;SDS011;3657;49.630;11.018;2023-05-03T05:28:13;11.33;;;10.77;;
7231;SDS011;3657;49.630;11.018;2023-05-03T05:30:39;10.80;;;10.30;;
7231;SDS011;3657;49.630;11.018;2023-05-03T05:33:06;10.67;;;10.07;;
7231;SDS011;3657;49.630;11.018;2023-05-03T05:35:33;13.90;;;12.93;;
7231;SDS011;3657;49.630;11.018;2023-05-03T05:38:00;13.00;;;12.20;;
7231;SDS011;3657;49.630;11.018;2023-05-03T05:40:28;14.90;;;13.87;;
7231;SDS011;3657;49.630;11.018;2023-05-03T05:42:55;16.20;;;15.13;;
7231;SDS011;3657;49.630;11.018;2023-05-03T05:45:21;16.03;;;15.00;;
7231;SDS011;3657;49.630;11.018;2023-05-03T05:47:48;19.83;;;18.37;;
7231;SDS011;3657;49.630;11.018;2023-05-03T05:50:15;19.10;;;17.67;;
7231;SDS011;3657;49.630;11.018;2023-05-03T05:52:42;16.30;;;15.23;;
7231;SDS011;3657;49.630;11.018;2023-05-03T05:55:08;15.60;;;14.60;;
7231;SDS011;3657;49.630;11.018;2023-05-03T05:57:39;14.80;;;13.90;;
7231;SDS011;3657;49.630;11.018;2023-05-03T06:00:06;13.70;;;13.00;;
7231;SDS011;3657;49.630;11.018;2023-05-03T06:02:38;14.83;;;13.83;;
7231;SDS011;3657;49.630;11.018;2023-05-03T06:05:05;13.20;;;12.40;;
7231;SDS011;3657;49.630;11.018;2023-05-03T06:07:32;14.07;;;13.30;;
7231;SDS011;3657;49.630;11.018;2023-05-03T06:09:59;12.97;;;12.27;;
7231;SDS011;3657;49.630;11.018;2023-05-03T06:12:25;12.83;;;12.13;;
7231;SDS011;3657;49.630;11.018;2023-05-03T06:14:53;11.33;;;10.67;;
7231;SDS011;3657;49.630;11.018;2023-05-03T06:17:20;11.73;;;11.00;;
7231;SDS011;3657;49.630;11.018;2023-05-03T06:19:49;11.13;;;10.63;;
7231;SDS011;3657;49.630;11.018;2023-05-03T06:22:16;10.90;;;10.40;;
7231;SDS011;3657;49.630;11.018;2023-05-03T06:24:43;10.80;;;10.30;;
7231;SDS011;3657;49.630;11.018;2023-05-03T06:27:09;11.37;;;10.77;;
7231;SDS011;3657;49.630;11.018;2023-05-03T06:29:36;11.60;;;10.83;;
7231;SDS011;3657;49.630;11.018;2023-05-03T06:32:04;11.43;;;10.80;;
7231;SDS011;3657;49.630;11.018;2023-05-03T06:34:31;9.97;;;9.57;;
7231;SDS011;3657;49.630;11.018;2023-05-03T06:36:58;10.30;;;9.90;;
7231;SDS011;3657;49.630;11.018;2023-05-03T06:39:24;9.50;;;9.00;;
7231;SDS011;3657;49.630;11.018;2023-05-03T06:41:52;11.03;;;10.33;;
7231;SDS011;3657;49.630;11.018;2023-05-03T06:44:18;11.73;;;11.13;;
7231;SDS011;3657;49.630;11.018;2023-05-03T06:46:45;11.77;;;11.10;;
7231;SDS011;3657;49.630;11.018;2023-05-03T06:49:13;10.97;;;10.47;;
7231;SDS011;3657;49.630;11.018;2023-05-03T06:51:40;11.40;;;10.40;;
7231;SDS011;3657;49.630;11.018;2023-05-03T06:54:06;10.60;;;10.10;;
7231;SDS011;3657;49.630;11.018;2023-05-03T06:56:34;10.87;;;10.27;;
7231;SDS011;3657;49.630;11.018;2023-05-03T06:59:01;11.50;;;11.00;;
7231;SDS011;3657;49.630;11.018;2023-05-03T07:01:28;10.50;;;9.90;;
7231;SDS011;3657;49.630;11.018;2023-05-03T07:03:55;10.97;;;10.50;;
7231;SDS011;3657;49.630;11.018;2023-05-03T07:06:22;11.57;;;10.90;;
7231;SDS011;3657;49.630;11.018;2023-05-03T07:08:49;11.13;;;10.53;;
7231;SDS011;3657;49.630;11.018;2023-05-03T07:11:16;10.37;;;9.97;;
7231;SDS011;3657;49.630;11.018;2023-05-03T07:13:43;10.40;;;10.00;;
7231;SDS011;3657;49.630;11.018;2023-05-03T07:16:10;11.50;;;10.77;;
7231;SDS011;3657;49.630;11.018;2023-05-03T07:18:37;10.50;;;10.10;;
7231;SDS011;3657;49.630;11.018;2023-05-03T07:21:03;10.73;;;10.20;;
7231;SDS011;3657;49.630;11.018;2023-05-03T07:23:32;10.73;;;10.33;;
7231;SDS011;3657;49.630;11.018;2023-05-03T07:25:58;10.83;;;10.27;;
7231;SDS011;3657;49.630;11.018;2023-05-03T07:28:25;10.17;;;9.67;;
7231;SDS011;3657;49.630;11.018;2023-05-03T07:30:51;11.50;;;10.80;;
7231;SDS011;3657;49.630;11.018;2023-05-03T07:33:18;11.27;;;10.17;;
7231;SDS011;3657;49.630;11.018;2023-05-03T07:35:45;10.50;;;9.90;;
7231;SDS011;3657;49.630;11.018;2023-05-03T07:38:12;9.87;;;9.47;;
7231;SDS011;3657;49.630;11.018;2023-05-03T07:40:40;10.53;;;10.13;;
7231;SDS011;3657;49.630;11.018;2023-05-03T07:43:07;10.83;;;10.13;;
7231;SDS011;3657;49.630;11.018;2023-05-03T07:45:34;9.90;;;9.37;;
7231;SDS011;3657;49.630;11.018;2023-05-03T07:48:01;10.97;;;10.13;;
7231;SDS011;3657;49.630;11.018;2023-05-03T07:50:28;9.70;;;9.30;;
7231;SDS011;3657;49.630;11.018;2023-05-03T07:52:55;10.23;;;9.53;;
7231;SDS011;3657;49.630;11.018;2023-05-03T07:55:21;10.13;;;9.63;;
7231;SDS011;3657;49.630;11.018;2023-05-03T07:57:50;9.50;;;9.20;;
7231;SDS011;3657;49.630;11.018;2023-05-03T08:00:22;11.43;;;10.90;;
7231;SDS011;3657;49.630;11.018;2023-05-03T08:02:49;9.73;;;9.23;;
7231;SDS011;3657;49.630;11.018;2023-05-03T08:05:15;10.30;;;9.70;;
7231;SDS011;3657;49.630;11.018;2023-05-03T08:07:42;10.63;;;10.13;;
7231;SDS011;3657;49.630;11.018;2023-05-03T08:10:10;10.43;;;10.03;;
7231;SDS011;3657;49.630;11.018;2023-05-03T08:12:36;9.67;;;9.20;;
7231;SDS011;3657;49.630;11.018;2023-05-03T08:15:05;10.20;;;9.77;;
7231;SDS011;3657;49.630;11.018;2023-05-03T08:17:38;8.77;;;8.47;;
7231;SDS011;3657;49.630;11.018;2023-05-03T08:20:06;11.13;;;10.10;;
7231;SDS011;3657;49.630;11.018;2023-05-03T08:22:33;10.67;;;10.17;;
7231;SDS011;3657;49.630;11.018;2023-05-03T08:25:00;10.03;;;9.33;;
7231;SDS011;3657;49.630;11.018;2023-05-03T08:27:28;11.03;;;10.37;;
7231;SDS011;3657;49.630;11.018;2023-05-03T08:29:55;10.13;;;9.43;;
7231;SDS011;3657;49.630;11.018;2023-05-03T08:32:23;9.17;;;8.87;;
7231;SDS011;3657;49.630;11.018;2023-05-03T08:34:50;9.17;;;8.77;;
7231;SDS011;3657;49.630;11.018;2023-05-03T08:37:17;8.50;;;8.10;;
7231;SDS011;3657;49.630;11.018;2023-05-03T08:39:44;10.10;;;9.60;;
7231;SDS011;3657;49.630;11.018;2023-05-03T08:42:12;9.33;;;8.93;;
7231;SDS011;3657;49.630;11.018;2023-05-03T08:44:41;10.13;;;9.73;;
7231;SDS011;3657;49.630;11.018;2023-05-03T08:47:12;9.43;;;9.00;;
7231;SDS011;3657;49.630;11.018;2023-05-03T08:49:40;9.33;;;9.00;;
7231;SDS011;3657;49.630;11.018;2023-05-03T08:52:08;9.43;;;9.03;;
7231;SDS011;3657;49.630;11.018;2023-05-03T08:54:35;9.00;;;8.53;;
7231;SDS011;3657;49.630;11.018;2023-05-03T08:57:02;9.37;;;8.90;;
7231;SDS011;3657;49.630;11.018;2023-05-03T08:59:29;9.80;;;9.30;;
7231;SDS011;3657;49.630;11.018;2023-05-03T09:01:55;8.60;;;8.23;;
7231;SDS011;3657;49.630;11.018;2023-05-03T09:04:30;9.60;;;9.13;;
7231;SDS011;3657;49.630;11.018;2023-05-03T09:07:07;8.00;;;7.70;;
7231;SDS011;3657;49.630;11.018;2023-05-03T09:09:34;9.53;;;8.90;;
7231;SDS011;3657;49.630;11.018;2023-05-03T09:12:01;9.20;;;8.73;;
7231;SDS011;3657;49.630;11.018;2023-05-03T09:14:28;8.97;;;8.53;;
7231;SDS011;3657;49.630;11.018;2023-05-03T09:16:55;8.80;;;8.50;;
7231;SDS011;3657;49.630;11.018;2023-05-03T09:19:47;7.90;;;7.57;;
7231;SDS011;3657;49.630;11.018;2023-05-03T09:22:16;7.33;;;7.03;;
7231;SDS011;3657;49.630;11.018;2023-05-03T09:24:49;8.33;;;7.93;;
7231;SDS011;3657;49.630;11.018;2023-05-03T09:27:18;7.73;;;7.40;;
7231;SDS011;3657;49.630;11.018;2023-05-03T09:29:45;8.53;;;8.07;;
7231;SDS011;3657;49.630;11.018;2023-05-03T09:32:12;8.10;;;7.57;;
7231;SDS011;3657;49.630;11.018;2023-05-03T09:34:39;9.03;;;8.63;;
7231;SDS011;3657;49.630;11.018;2023-05-03T09:37:06;7.30;;;7.03;;
7231;SDS011;3657;49.630;11.018;2023-05-03T09:39:34;7.17;;;6.97;;
7231;SDS011;3657;49.630;11.018;2023-05-03T09:42:08;7.37;;;7.07;;
7231;SDS011;3657;49.630;11.018;2023-05-03T09:44:39;6.67;;;6.47;;
7231;SDS011;3657;49.630;11.018;2023-05-03T09:47:15;7.57;;;7.33;;
7231;SDS011;3657;49.630;11.018;2023-05-03T09:49:42;6.63;;;6.43;;
7231;SDS011;3657;49.630;11.018;2023-05-03T09:52:09;5.87;;;5.60;;
7231;SDS011;3657;49.630;11.018;2023-05-03T09:54:38;6.17;;;5.97;;
7231;SDS011;3657;49.630;11.018;2023-05-03T09:57:05;6.60;;;6.40;;
7231;SDS011;3657;49.630;11.018;2023-05-03T09:59:33;6.40;;;6.20;;
7231;SDS011;3657;49.630;11.018;2023-05-03T10:02:01;6.53;;;6.33;;
7231;SDS011;3657;49.630;11.018;2023-05-03T10:04:33;6.43;;;6.23;;
7231;SDS011;3657;49.630;11.018;2023-05-03T10:07:06;6.37;;;6.17;;
7231;SDS011;3657;49.630;11.018;2023-05-03T10:09:35;5.73;;;5.53;;
7231;SDS011;3657;49.630;11.018;2023-05-03T10:12:08;6.43;;;6.23;;
7231;SDS011;3657;49.630;11.018;2023-05-03T10:14:36;6.00;;;5.80;;
7231;SDS011;3657;49.630;11.018;2023-05-03T10:17:06;6.00;;;5.70;;
7231;SDS011;3657;49.630;11.018;2023-05-03T10:19:39;6.43;;;6.23;;
7231;SDS011;3657;49.630;11.018;2023-05-03T10:22:12;5.60;;;5.40;;
7231;SDS011;3657;49.630;11.018;2023-05-03T10:27:41;6.13;;;5.93;;
7231;SDS011;3657;49.630;11.018;2023-05-03T10:30:25;5.83;;;5.63;;
7231;SDS011;3657;49.630;11.018;2023-05-03T10:32:55;5.43;;;5.23;;
7231;SDS011;3657;49.630;11.018;2023-05-03T10:35:24;5.50;;;5.30;;
7231;SDS011;3657;49.630;11.018;2023-05-03T10:37:51;5.13;;;4.87;;
7231;SDS011;3657;49.630;11.018;2023-05-03T10:40:22;6.23;;;5.90;;
7231;SDS011;3657;49.630;11.018;2023-05-03T10:42:49;6.77;;;6.47;;
7231;SDS011;3657;49.630;11.018;2023-05-03T10:45:21;5.67;;;5.47;;
7231;SDS011;3657;49.630;11.018;2023-05-03T10:50:44;7.23;;;7.03;;
7231;SDS011;3657;49.630;11.018;2023-05-03T10:56:02;6.93;;;6.63;;
7231;SDS011;3657;49.630;11.018;2023-05-03T10:58:34;5.73;;;5.43;;
7231;SDS011;3657;49.630;11.018;2023-05-03T11:01:02;5.93;;;5.73;;
7231;SDS011;3657;49.630;11.018;2023-05-03T11:03:34;7.60;;;7.30;;
7231;SDS011;3657;49.630;11.018;2023-05-03T11:06:08;6.47;;;6.10;;
7231;SDS011;3657;49.630;11.018;2023-05-03T11:08:35;6.57;;;6.20;;
7231;SDS011;3657;49.630;11.018;2023-05-03T11:11:03;5.30;;;5.20;;
7231;SDS011;3657;49.630;11.018;2023-05-03T11:13:33;5.70;;;5.40;;
7231;SDS011;3657;49.630;11.018;2023-05-03T11:16:01;5.43;;;5.23;;
7231;SDS011;3657;49.630;11.018;2023-05-03T11:18:28;5.50;;;5.40;;
7231;SDS011;3657;49.630;11.018;2023-05-03T11:20:56;6.40;;;6.20;;
7231;SDS011;3657;49.630;11.018;2023-05-03T11:23:24;5.87;;;5.67;;
7231;SDS011;3657;49.630;11.018;2023-05-03T11:25:52;5.90;;;5.60;;
7231;SDS011;3657;49.630;11.018;2023-05-03T11:28:20;5.63;;;5.43;;
7231;SDS011;3657;49.630;11.018;2023-05-03T11:30:47;6.83;;;6.63;;
7231;SDS011;3657;49.630;11.018;2023-05-03T11:33:14;4.70;;;4.50;;
7231;SDS011;3657;49.630;11.018;2023-05-03T11:35:41;4.83;;;4.63;;
7231;SDS011;3657;49.630;11.018;2023-05-03T11:38:08;6.50;;;6.30;;
7231;SDS011;3657;49.630;11.018;2023-05-03T11:40:34;5.30;;;5.17;;
7231;SDS011;3657;49.630;11.018;2023-05-03T11:43:03;4.80;;;4.60;;
7231;SDS011;3657;49.630;11.018;2023-05-03T11:45:39;5.90;;;5.60;;
7231;SDS011;3657;49.630;11.018;2023-05-03T11:48:09;5.90;;;5.70;;
7231;SDS011;3657;49.630;11.018;2023-05-03T11:50:44;4.67;;;4.57;;
7231;SDS011;3657;49.630;11.018;2023-05-03T11:53:12;5.23;;;5.03;;
7231;SDS011;3657;49.630;11.018;2023-05-03T11:55:40;4.57;;;4.47;;
7231;SDS011;3657;49.630;11.018;2023-05-03T11:58:07;5.57;;;5.47;;
7231;SDS011;3657;49.630;11.018;2023-05-03T12:00:38;4.83;;;4.63;;
7231;SDS011;3657;49.630;11.018;2023-05-03T12:03:09;5.37;;;5.17;;
7231;SDS011;3657;49.630;11.018;2023-05-03T12:05:36;4.83;;;4.67;;
7231;SDS011;3657;49.630;11.018;2023-05-03T12:08:02;6.07;;;5.77;;
7231;SDS011;3657;49.630;11.018;2023-05-03T12:10:30;4.73;;;4.53;;
7231;SDS011;3657;49.630;11.018;2023-05-03T12:12:58;4.63;;;4.53;;
7231;SDS011;3657;49.630;11.018;2023-05-03T12:15:26;4.57;;;4.47;;
7231;SDS011;3657;49.630;11.018;2023-05-03T12:17:56;4.73;;;4.63;;
7231;SDS011;3657;49.630;11.018;2023-05-03T12:20:23;4.50;;;4.40;;
7231;SDS011;3657;49.630;11.018;2023-05-03T12:22:53;4.63;;;4.53;;
7231;SDS011;3657;49.630;11.018;2023-05-03T12:25:20;4.50;;;4.40;;
7231;SDS011;3657;49.630;11.018;2023-05-03T12:27:47;3.97;;;3.70;;
7231;SDS011;3657;49.630;11.018;2023-05-03T12:30:14;3.90;;;3.80;;
7231;SDS011;3657;49.630;11.018;2023-05-03T12:32:41;5.00;;;4.80;;
7231;SDS011;3657;49.630;11.018;2023-05-03T12:35:09;7.10;;;6.67;;
7231;SDS011;3657;49.630;11.018;2023-05-03T12:37:36;4.57;;;4.47;;
7231;SDS011;3657;49.630;11.018;2023-05-03T12:40:03;4.40;;;4.20;;
7231;SDS011;3657;49.630;11.018;2023-05-03T12:42:30;3.60;;;3.50;;
7231;SDS011;3657;49.630;11.018;2023-05-03T12:44:57;4.27;;;3.97;;
7231;SDS011;3657;49.630;11.018;2023-05-03T12:47:24;6.07;;;5.87;;
7231;SDS011;3657;49.630;11.018;2023-05-03T12:49:51;4.67;;;4.50;;
7231;SDS011;3657;49.630;11.018;2023-05-03T12:52:20;3.93;;;3.73;;
7231;SDS011;3657;49.630;11.018;2023-05-03T12:54:47;3.93;;;3.83;;
7231;SDS011;3657;49.630;11.018;2023-05-03T12:57:14;4.30;;;4.20;;
7231;SDS011;3657;49.630;11.018;2023-05-03T12:59:41;4.07;;;3.97;;
7231;SDS011;3657;49.630;11.018;2023-05-03T13:02:08;4.00;;;3.80;;
7231;SDS011;3657;49.630;11.018;2023-05-03T13:04:35;3.97;;;3.87;;
7231;SDS011;3657;49.630;11.018;2023-05-03T13:07:02;3.97;;;3.87;;
7231;SDS011;3657;49.630;11.018;2023-05-03T13:09:31;3.47;;;3.27;;
7231;SDS011;3657;49.630;11.018;2023-05-03T13:11:58;4.50;;;4.30;;
7231;SDS011;3657;49.630;11.018;2023-05-03T13:14:26;3.77;;;3.67;;
7231;SDS011;3657;49.630;11.018;2023-05-03T13:16:53;3.40;;;3.30;;
7231;SDS011;3657;49.630;11.018;2023-05-03T13:19:20;3.43;;;3.33;;
7231;SDS011;3657;49.630;11.018;2023-05-03T13:21:46;3.83;;;3.73;;
7231;SDS011;3657;49.630;11.018;2023-05-03T13:24:13;3.40;;;3.30;;
7231;SDS011;3657;49.630;11.018;2023-05-03T13:26:42;3.50;;;3.40;;
7231;SDS011;3657;49.630;11.018;2023-05-03T13:29:08;4.00;;;3.90;;
7231;SDS011;3657;49.630;11.018;2023-05-03T13:31:35;3.33;;;3.23;;
7231;SDS011;3657;49.630;11.018;2023-05-03T13:34:01;3.67;;;3.53;;
7231;SDS011;3657;49.630;11.018;2023-05-03T13:36:28;3.20;;;3.10;;
7231;SDS011;3657;49.630;11.018;2023-05-03T13:38:57;3.10;;;3.00;;
7231;SDS011;3657;49.630;11.018;2023-05-03T13:41:25;3.70;;;3.60;;
7231;SDS011;3657;49.630;11.018;2023-05-03T13:43:54;2.90;;;2.80;;
7231;SDS011;3657;49.630;11.018;2023-05-03T13:46:20;3.37;;;3.27;;
7231;SDS011;3657;49.630;11.018;2023-05-03T13:48:48;3.30;;;3.20;;
7231;SDS011;3657;49.630;11.018;2023-05-03T13:51:14;3.27;;;3.10;;
7231;SDS011;3657;49.630;11.018;2023-05-03T13:53:41;3.83;;;3.73;;
7231;SDS011;3657;49.630;11.018;2023-05-03T13:56:09;3.33;;;3.23;;
7231;SDS011;3657;49.630;11.018;2023-05-03T13:58:35;3.40;;;3.20;;
7231;SDS011;3657;49.630;11.018;2023-05-03T14:01:08;3.63;;;3.43;;
7231;SDS011;3657;49.630;11.018;2023-05-03T14:03:35;3.50;;;3.40;;
7231;SDS011;3657;49.630;11.018;2023-05-03T14:06:01;3.20;;;3.10;;
7231;SDS011;3657;49.630;11.018;2023-05-03T14:08:28;3.97;;;3.87;;
7231;SDS011;3657;49.630;11.018;2023-05-03T14:10:55;3.90;;;3.70;;
7231;SDS011;3657;49.630;11.018;2023-05-03T14:13:21;3.80;;;3.70;;
7231;SDS011;3657;49.630;11.018;2023-05-03T14:15:48;3.47;;;3.37;;
7231;SDS011;3657;49.630;11.018;2023-05-03T14:18:17;3.30;;;3.20;;
7231;SDS011;3657;49.630;11.018;2023-05-03T14:20:43;3.57;;;3.47;;
7231;SDS011;3657;49.630;11.018;2023-05-03T14:23:11;3.40;;;3.30;;
7231;SDS011;3657;49.630;11.018;2023-05-03T14:25:37;3.90;;;3.80;;
7231;SDS011;3657;49.630;11.018;2023-05-03T14:28:04;3.77;;;3.67;;
7231;SDS011;3657;49.630;11.018;2023-05-03T14:30:30;2.90;;;2.80;;
7231;SDS011;3657;49.630;11.018;2023-05-03T14:32:58;3.27;;;3.17;;
7231;SDS011;3657;49.630;11.018;2023-05-03T14:35:26;4.07;;;3.87;;
7231;SDS011;3657;49.630;11.018;2023-05-03T14:37:52;3.63;;;3.43;;
7231;SDS011;3657;49.630;11.018;2023-05-03T14:40:19;4.07;;;3.87;;
7231;SDS011;3657;49.630;11.018;2023-05-03T14:42:46;3.30;;;3.10;;
7231;SDS011;3657;49.630;11.018;2023-05-03T14:45:12;4.57;;;4.23;;
7231;SDS011;3657;49.630;11.018;2023-05-03T14:47:39;4.23;;;3.93;;
7231;SDS011;3657;49.630;11.018;2023-05-03T14:50:06;3.70;;;3.60;;
7231;SDS011;3657;49.630;11.018;2023-05-03T14:52:35;3.60;;;3.50;;
7231;SDS011;3657;49.630;11.018;2023-05-03T14:55:02;3.77;;;3.67;;
7231;SDS011;3657;49.630;11.018;2023-05-03T14:57:30;4.53;;;4.27;;
7231;SDS011;3657;49.630;11.018;2023-05-03T14:59:58;4.03;;;3.93;;
7231;SDS011;3657;49.630;11.018;2023-05-03T15:02:25;3.87;;;3.77;;
7231;SDS011;3657;49.630;11.018;2023-05-03T15:04:52;5.27;;;4.30;;